Time;durP1;ratioP1;P1;durP2;ratioP2;P2;SDS_P1;SDS_P2;PMS_P1;PMS_P2;Temp;Humidity;BMP_temperature;BMP_pressure;BME280_temperature;BME280_humidity;BME280_pressure;Samples;Min_cycle;Max_cycle;Signal;HPM_P1;HPM_P2
2022/11/17 00:01:51;;;;;;;86.15;47.42;;;;;;;13.39;72.33;99590.28;5052357;28;20129;-76
2022/11/17 00:04:17;;;;;;;92.30;45.85;;;;;;;13.43;72.50;99597.88;5052836;28;20036;-76
2022/11/17 00:06:43;;;;;;;104.22;44.55;;;;;;;13.31;72.51;99582.16;5052248;28;20450;-76
2022/11/17 00:09:16;;;;;;;92.22;45.65;;;;;;;13.30;72.63;99592.09;5051998;28;20192;-76
2022/11/17 00:14:32;;;;;;;90.40;43.28;;;;;;;13.36;72.61;99596.03;5062781;28;20032;-76
2022/11/17 00:17:09;;;;;;;100.17;43.00;;;;;;;13.11;72.94;99554.66;5056805;28;20415;-76
2022/11/17 00:22:19;;;;;;;90.53;44.53;;;;;;;13.11;73.07;99559.22;5051100;28;20036;-77
2022/11/17 00:24:47;;;;;;;80.95;43.88;;;;;;;13.31;73.08;99598.38;5051662;28;20029;-76
2022/11/17 00:27:12;;;;;;;77.72;43.53;;;;;;;13.20;73.49;99585.19;5051263;28;20409;-76
2022/11/17 00:29:38;;;;;;;80.70;43.13;;;;;;;13.15;73.32;99591.09;5051410;28;20025;-75
2022/11/17 00:34:47;;;;;;;93.88;44.63;;;;;;;13.10;73.32;99569.16;5051645;28;20040;-76
2022/11/17 00:37:14;;;;;;;81.10;43.10;;;;;;;13.34;73.12;99593.47;5051410;28;20021;-76
2022/11/17 00:39:40;;;;;;;103.57;43.45;;;;;;;13.32;73.26;99582.00;5051626;28;20031;-76
2022/11/17 00:42:05;;;;;;;86.72;44.92;;;;;;;13.35;73.42;99591.63;5051479;28;20107;-76
2022/11/17 00:44:31;;;;;;;103.55;45.78;;;;;;;13.35;73.30;99581.66;5051062;28;20135;-74
2022/11/17 00:46:56;;;;;;;106.90;46.70;;;;;;;13.40;73.36;99576.59;5051317;28;20035;-76
2022/11/17 00:49:25;;;;;;;83.00;43.78;;;;;;;13.20;73.10;99540.16;5051052;28;20060;-75
2022/11/17 00:51:55;;;;;;;108.15;45.38;;;;;;;13.43;73.06;99573.56;5051366;28;20033;-77
2022/11/17 00:54:21;;;;;;;84.97;44.22;;;;;;;13.39;73.29;99563.28;5050898;28;20036;-77
2022/11/17 00:56:46;;;;;;;88.38;41.40;;;;;;;13.46;72.97;99572.38;5050878;28;20047;-76
2022/11/17 00:59:12;;;;;;;104.35;45.38;;;;;;;13.51;73.16;99570.03;5050853;28;20484;-76
2022/11/17 01:01:38;;;;;;;75.80;44.15;;;;;;;13.43;73.48;99553.81;5051164;28;20026;-76
2022/11/17 01:04:04;;;;;;;73.95;40.38;;;;;;;13.56;73.78;99565.81;5054988;28;20083;-76
2022/11/17 01:06:40;;;;;;;82.40;44.13;;;;;;;13.60;73.76;99561.75;5051504;28;20078;-75
2022/11/17 01:09:11;;;;;;;77.43;42.72;;;;;;;13.70;73.71;99564.25;5050630;28;20033;-75
2022/11/17 01:11:36;;;;;;;74.07;41.78;;;;;;;13.57;74.13;99528.84;5050690;28;20120;-76
2022/11/17 01:14:02;;;;;;;73.72;42.70;;;;;;;13.77;73.46;99540.94;5049235;28;20044;-77
2022/11/17 01:16:29;;;;;;;76.03;42.05;;;;;;;13.89;73.30;99552.22;5050744;28;20036;-76
2022/11/17 01:18:57;;;;;;;74.13;41.20;;;;;;;13.94;73.29;99555.28;5050826;28;20107;-76
2022/11/17 01:21:25;;;;;;;68.53;40.75;;;;;;;14.01;73.00;99554.41;5057673;28;20103;-76
2022/11/17 01:23:53;;;;;;;79.53;40.30;;;;;;;14.08;72.94;99554.56;5056961;28;20036;-76
2022/11/17 01:26:27;;;;;;;66.90;41.20;;;;;;;14.12;72.33;99539.69;5054979;28;20021;-76
2022/11/17 01:28:53;;;;;;;74.97;44.95;;;;;;;13.97;71.89;99509.84;5050682;28;20469;-76
2022/11/17 01:31:21;;;;;;;63.58;40.88;;;;;;;14.19;71.87;99525.28;5051206;28;20042;-75
2022/11/17 01:33:47;;;;;;;74.68;44.53;;;;;;;14.27;71.92;99543.34;5050331;28;20065;-75
2022/11/17 01:36:18;;;;;;;68.35;41.63;;;;;;;14.30;71.78;99536.75;5050010;28;20033;-76
2022/11/17 01:38:44;;;;;;;65.88;43.83;;;;;;;14.36;72.00;99527.97;5049200;28;20132;-76
2022/11/17 01:41:22;;;;;;;68.70;43.20;;;;;;;14.42;71.98;99527.25;5050658;28;20416;-77
2022/11/17 01:43:54;;;;;;;66.15;41.05;;;;;;;14.45;72.16;99524.19;5050660;28;20116;-76
2022/11/17 01:46:37;;;;;;;119.72;76.35;;;;;;;14.49;72.45;99514.72;5050274;28;20025;-76
2022/11/17 01:49:11;;;;;;;66.68;43.38;;;;;;;14.46;72.36;99504.25;5050595;28;20045;-76
2022/11/17 01:51:41;;;;;;;77.65;48.17;;;;;;;14.49;72.40;99506.59;5050385;28;20125;-76
2022/11/17 01:54:09;;;;;;;76.00;45.17;;;;;;;14.58;72.11;99508.25;5050580;28;20044;-76
2022/11/17 01:56:40;;;;;;;79.57;48.90;;;;;;;14.54;72.24;99485.25;5050172;28;20321;-76
2022/11/17 01:59:19;;;;;;;72.63;45.00;;;;;;;14.69;72.02;99499.72;5049405;28;20447;-75
2022/11/17 02:01:56;;;;;;;74.10;44.63;;;;;;;14.76;71.56;99505.25;5050198;28;20466;-76
2022/11/17 02:04:29;;;;;;;69.82;44.30;;;;;;;14.65;71.73;99476.72;5050282;28;20029;-76
2022/11/17 02:07:13;;;;;;;68.47;42.78;;;;;;;14.77;71.90;99502.34;5048889;28;20025;-76
2022/11/17 02:09:39;;;;;;;71.30;41.22;;;;;;;14.79;71.80;99503.03;5049978;28;20108;-77
2022/11/17 02:12:08;;;;;;;68.43;41.35;;;;;;;14.83;71.62;99501.66;5050017;28;20028;-76
2022/11/17 02:14:35;;;;;;;66.18;40.15;;;;;;;14.86;71.44;99501.28;5050509;28;20055;-76
2022/11/17 02:17:08;;;;;;;62.95;40.38;;;;;;;14.91;71.22;99498.91;5050797;28;20106;-76
2022/11/17 02:19:39;;;;;;;64.47;39.83;;;;;;;14.93;71.15;99487.88;5050477;28;20067;-76
2022/11/17 02:22:34;;;;;;;71.18;39.97;;;;;;;14.90;70.91;99489.09;5049022;28;20466;-75
2022/11/17 02:24:59;;;;;;;68.85;43.17;;;;;;;14.91;71.03;99482.66;5009473;28;20042;-76
2022/11/17 02:27:37;;;;;;;58.63;38.05;;;;;;;14.95;70.91;99489.38;5015139;28;20037;-76
2022/11/17 02:30:11;;;;;;;62.40;39.72;;;;;;;14.97;70.85;99486.50;5015943;28;20542;-76
2022/11/17 02:32:57;;;;;;;62.42;39.67;;;;;;;14.96;70.58;99480.25;5013315;28;20029;-75
2022/11/17 02:35:27;;;;;;;56.45;36.85;;;;;;;14.98;70.67;99486.31;5015782;28;20057;-76
2022/11/17 02:38:21;;;;;;;59.65;37.60;;;;;;;14.99;70.58;99488.00;5008542;28;20169;-76
2022/11/17 02:41:05;;;;;;;63.00;41.33;;;;;;;14.99;70.75;99490.72;5008628;28;20045;-76
2022/11/17 02:46:27;;;;;;;59.10;38.42;;;;;;;15.00;70.50;99494.25;5011794;28;20048;-75
2022/11/17 02:49:04;;;;;;;60.22;38.42;;;;;;;15.06;70.69;99491.69;5011342;28;20054;-76
2022/11/17 02:51:33;;;;;;;60.63;39.00;;;;;;;15.09;70.40;99490.47;5011295;28;20038;-76
2022/11/17 02:54:00;;;;;;;66.57;39.03;;;;;;;15.08;70.39;99495.03;5011261;28;20041;-76
2022/11/17 02:56:26;;;;;;;63.35;39.67;;;;;;;15.08;70.22;99478.78;5011414;28;20041;-76
2022/11/17 02:58:58;;;;;;;69.50;38.08;;;;;;;14.91;70.16;99444.75;5011286;28;20041;-76
2022/11/17 03:01:36;;;;;;;60.15;38.53;;;;;;;15.13;69.86;99470.97;5032300;28;20044;-76
2022/11/17 03:04:25;;;;;;;56.60;36.92;;;;;;;15.14;70.03;99467.22;5053084;28;20040;-75
2022/11/17 03:06:53;;;;;;;62.88;38.85;;;;;;;15.15;69.72;99471.63;5053618;28;20021;-76
2022/11/17 03:09:39;;;;;;;62.88;38.22;;;;;;;14.97;69.90;99433.19;5053358;28;20021;-76
2022/11/17 03:12:23;;;;;;;55.95;36.00;;;;;;;15.12;69.66;99458.47;5052895;28;20053;-76
2022/11/17 03:14:57;;;;;;;57.45;37.60;;;;;;;15.15;69.84;99460.81;5053115;28;20103;-76
2022/11/17 03:17:40;;;;;;;53.50;33.90;;;;;;;15.10;69.73;99448.84;5052421;28;20391;-76
2022/11/17 03:20:11;;;;;;;59.60;36.65;;;;;;;14.91;69.86;99424.97;5052680;28;20029;-77
2022/11/17 03:22:52;;;;;;;61.23;37.40;;;;;;;15.06;69.79;99437.53;5052733;28;20024;-75
2022/11/17 03:25:21;;;;;;;61.10;39.33;;;;;;;15.02;70.10;99436.19;5053256;28;20140;-75
2022/11/17 03:27:52;;;;;;;65.20;38.30;;;;;;;14.94;70.12;99421.88;5052427;28;20028;-75
2022/11/17 03:30:19;;;;;;;63.55;40.20;;;;;;;14.78;70.39;99401.19;5052809;28;20107;-76
2022/11/17 03:32:49;;;;;;;61.30;37.88;;;;;;;14.96;70.37;99426.09;5052941;28;20132;-75
2022/11/17 03:35:21;;;;;;;56.55;37.05;;;;;;;14.99;70.41;99428.44;5053221;28;20021;-76
2022/11/17 03:37:52;;;;;;;58.15;37.95;;;;;;;14.97;70.19;99425.06;5052601;28;20029;-75
2022/11/17 03:40:21;;;;;;;55.83;35.85;;;;;;;14.94;70.25;99427.31;5053889;28;20039;-75
2022/11/17 03:42:52;;;;;;;61.53;36.78;;;;;;;14.94;70.37;99430.00;5055852;28;20029;-77
2022/11/17 03:45:30;;;;;;;65.47;39.33;;;;;;;14.82;70.45;99412.50;5056570;28;20028;-75
2022/11/17 03:48:02;;;;;;;59.33;38.00;;;;;;;14.89;70.35;99425.13;5052282;28;20060;-76
2022/11/17 03:50:35;;;;;;;63.25;37.03;;;;;;;14.94;70.42;99422.75;5052716;28;20036;-76
2022/11/17 03:53:05;;;;;;;64.43;37.33;;;;;;;14.90;70.13;99412.44;5052445;28;20033;-77
2022/11/17 03:55:48;;;;;;;70.38;39.35;;;;;;;14.95;70.60;99418.97;5053306;28;20017;-77
2022/11/17 03:58:18;;;;;;;86.05;53.45;;;;;;;14.95;70.29;99407.34;5055013;28;20033;-76
2022/11/17 04:00:47;;;;;;;62.95;37.13;;;;;;;15.01;70.34;99412.03;5051660;28;20029;-76
2022/11/17 04:03:14;;;;;;;61.53;38.05;;;;;;;15.03;70.22;99404.53;5052167;28;20487;-76
2022/11/17 04:05:39;;;;;;;61.63;38.40;;;;;;;14.83;70.47;99382.53;5052258;28;20025;-77
2022/11/17 04:08:05;;;;;;;60.50;38.63;;;;;;;15.00;70.55;99408.47;5052134;28;20404;-75
2022/11/17 04:10:30;;;;;;;67.57;39.75;;;;;;;14.87;70.52;99389.28;5052275;28;20290;-76
2022/11/17 04:15:58;;;;;;;58.70;40.13;;;;;;;15.00;70.31;99405.75;5052184;28;20538;-76
2022/11/17 04:18:24;;;;;;;58.75;37.95;;;;;;;14.87;70.39;99383.03;5051636;28;20029;-75
2022/11/17 04:20:51;;;;;;;64.53;38.40;;;;;;;15.00;70.53;99405.75;5051441;28;20116;-76
2022/11/17 04:23:17;;;;;;;60.08;38.10;;;;;;;15.03;70.53;99410.81;5051097;28;20031;-77
2022/11/17 04:28:49;;;;;;;70.68;38.33;;;;;;;15.00;70.61;99416.59;5051403;28;20043;-76
2022/11/17 04:31:21;;;;;;;62.30;34.85;;;;;;;15.03;70.48;99409.97;5049695;28;20566;-76
2022/11/17 04:33:48;;;;;;;;;;;;;;;15.03;70.65;99410.81;5051626;28;20033;-75
2022/11/17 04:36:17;;;;;;;66.25;38.90;;;;;;;15.01;70.75;99399.34;5051011;28;19985;-76
2022/11/17 04:38:48;;;;;;;70.72;38.38;;;;;;;14.97;70.63;99394.44;5050741;28;20064;-76
2022/11/17 04:44:00;;;;;;;68.72;38.40;;;;;;;14.88;70.98;99396.38;5051375;28;20052;-76
2022/11/17 04:46:28;;;;;;;73.78;37.90;;;;;;;14.80;71.00;99393.72;5051273;28;20486;-76
2022/11/17 04:48:54;;;;;;;83.88;40.05;;;;;;;14.70;71.25;99364.25;5051215;28;20158;-76
2022/11/17 04:51:20;;;;;;;68.45;36.85;;;;;;;14.84;71.16;99395.06;5058365;28;20087;-75
2022/11/17 04:53:46;;;;;;;73.85;42.03;;;;;;;14.90;71.57;99416.00;5060809;28;20037;-74
2022/11/17 04:56:12;;;;;;;69.90;40.55;;;;;;;14.75;71.51;99369.09;5057375;28;20541;-75
2022/11/17 04:58:38;;;;;;;96.32;40.83;;;;;;;14.94;71.22;99411.91;5050824;28;20504;-75
2022/11/17 05:01:13;;;;;;;95.97;40.97;;;;;;;14.96;71.00;99404.44;5051019;28;20025;-76
2022/11/17 05:03:47;;;;;;;96.97;42.50;;;;;;;14.98;71.03;99404.25;5050568;28;20098;-75
2022/11/17 05:06:26;;;;;;;93.20;45.03;;;;;;;14.93;71.34;99404.78;5051177;28;20119;-76
2022/11/17 05:08:56;;;;;;;82.72;41.92;;;;;;;14.97;71.24;99416.97;5050551;28;20071;-76
2022/11/17 05:14:09;;;;;;;79.95;41.95;;;;;;;14.99;71.25;99400.50;5051382;28;20039;-76
2022/11/17 05:19:21;;;;;;;69.95;41.05;;;;;;;15.01;70.99;99406.59;5050704;28;20091;-76
2022/11/17 05:21:47;;;;;;;84.43;43.70;;;;;;;14.93;70.89;99393.97;5050573;28;20029;-76
2022/11/17 05:24:13;;;;;;;77.00;42.42;;;;;;;14.94;70.96;99395.66;5050942;28;20039;-76
2022/11/17 05:26:39;;;;;;;109.10;46.70;;;;;;;14.97;70.96;99410.69;5054840;28;20029;-77
2022/11/17 05:29:06;;;;;;;97.82;43.10;;;;;;;14.89;71.22;99392.63;5050281;28;20029;-75
2022/11/17 05:31:33;;;;;;;75.55;43.28;;;;;;;14.97;71.41;99392.59;5050390;28;20057;-75
2022/11/17 05:33:58;;;;;;;81.43;43.13;;;;;;;14.81;71.45;99357.53;5049141;28;20035;-75
2022/11/17 05:36:25;;;;;;;92.97;41.97;;;;;;;15.04;71.37;99381.88;5050204;28;20032;-76
2022/11/17 05:38:51;;;;;;;119.93;46.38;;;;;;;15.10;71.39;99386.56;5048901;28;20029;-76
2022/11/17 05:41:17;;;;;;;105.93;45.05;;;;;;;15.15;71.40;99392.25;5050249;28;20025;-76
2022/11/17 05:43:43;;;;;;;73.28;39.35;;;;;;;15.18;71.41;99389.16;5050227;28;20029;-77
2022/11/17 05:46:09;;;;;;;70.15;41.63;;;;;;;15.18;71.04;99383.75;5048794;28;20055;-76
2022/11/17 05:48:34;;;;;;;114.22;44.38;;;;;;;15.29;70.95;99388.72;5049914;28;20045;-77
2022/11/17 05:51:01;;;;;;;108.07;44.53;;;;;;;15.11;70.72;99347.59;5050306;28;20032;-77
2022/11/17 05:53:27;;;;;;;83.05;42.22;;;;;;;15.32;71.13;99376.69;5050250;28;20170;-76
2022/11/17 05:56:38;;;;;;;77.50;41.13;;;;;;;15.37;71.26;99376.97;5050126;28;20029;-75
2022/11/17 05:59:25;;;;;;;92.60;40.78;;;;;;;15.32;71.00;99382.91;5007945;28;20046;-76
2022/11/17 06:02:00;;;;;;;87.15;39.83;;;;;;;15.36;71.21;99378.81;5013905;28;20061;-75
2022/11/17 06:04:27;;;;;;;95.60;43.55;;;;;;;15.16;71.09;99340.63;5014876;28;20091;-76
2022/11/17 06:06:57;;;;;;;111.05;45.05;;;;;;;15.22;70.85;99344.44;5011866;28;20030;-77
2022/11/17 06:09:24;;;;;;;98.38;44.30;;;;;;;15.31;71.29;99347.91;5007680;28;20049;-75
2022/11/17 06:11:50;;;;;;;86.43;45.30;;;;;;;15.49;71.11;99383.63;5008103;28;20026;-76
2022/11/17 06:14:15;;;;;;;112.18;42.10;;;;;;;15.49;71.21;99379.06;5007894;28;20037;-76
2022/11/17 06:16:45;;;;;;;124.72;50.08;;;;;;;15.55;71.26;99378.31;5007899;28;20042;-77
2022/11/17 06:19:23;;;;;;;123.05;52.85;;;;;;;15.61;71.09;99369.44;5007486;28;20543;-76
2022/11/17 06:21:49;;;;;;;136.07;53.00;;;;;;;15.65;70.92;99367.19;5011635;28;20176;-76
2022/11/17 06:24:15;;;;;;;171.18;52.63;;;;;;;15.68;71.30;99355.97;5011485;28;20052;-76
2022/11/17 06:26:41;;;;;;;111.85;46.50;;;;;;;15.70;71.11;99345.78;5011778;28;20447;-76
2022/11/17 06:29:08;;;;;;;183.10;54.45;;;;;;;15.66;71.10;99337.16;5011031;28;20042;-75
2022/11/17 06:31:34;;;;;;;119.78;44.20;;;;;;;15.68;71.20;99343.25;4978552;28;20048;-76
2022/11/17 06:34:01;;;;;;;100.18;40.53;;;;;;;15.72;71.05;99351.84;5011617;28;20038;-76
2022/11/17 06:36:28;;;;;;;89.22;41.42;;;;;;;15.83;71.16;99358.66;5053515;28;20036;-75
2022/11/17 06:38:53;;;;;;;109.90;42.30;;;;;;;15.84;70.82;99355.75;5053155;28;20043;-77
2022/11/17 06:41:18;;;;;;;100.00;37.72;;;;;;;15.81;70.95;99331.72;5053532;28;20095;-76
2022/11/17 06:43:44;;;;;;;56.95;35.25;;;;;;;15.90;70.88;99351.47;5053521;28;20499;-76
2022/11/17 06:46:09;;;;;;;63.05;34.83;;;;;;;15.96;70.64;99356.13;5053136;28;20037;-76
2022/11/17 06:48:35;;;;;;;51.05;34.10;;;;;;;15.99;70.36;99345.72;5053943;28;20100;-76
2022/11/17 06:51:03;;;;;;;115.97;41.00;;;;;;;16.06;70.22;99346.63;5053279;28;20036;-76
2022/11/17 06:53:28;;;;;;;73.78;34.95;;;;;;;16.10;69.91;99350.66;5057931;28;20042;-77
2022/11/17 06:56:01;;;;;;;44.58;28.58;;;;;;;16.02;69.82;99331.78;5054081;28;20025;-76
2022/11/17 06:58:27;;;;;;;50.83;29.73;;;;;;;16.03;69.56;99319.91;5053987;28;20037;-76
2022/11/17 07:00:53;;;;;;;67.18;31.10;;;;;;;16.17;69.49;99329.03;5051034;28;20049;-77
2022/11/17 07:03:18;;;;;;;49.88;26.48;;;;;;;16.25;69.28;99337.88;5053290;28;20028;-75
2022/11/17 07:05:45;;;;;;;36.50;23.80;;;;;;;16.29;69.34;99330.22;5052253;28;20017;-76
2022/11/17 07:08:10;;;;;;;77.50;40.95;;;;;;;16.27;69.55;99324.97;5053389;28;20029;-76
2022/11/17 07:10:37;;;;;;;57.85;33.90;;;;;;;16.36;69.75;99330.28;5055975;28;20048;-76
2022/11/17 07:13:03;;;;;;;42.20;24.75;;;;;;;16.36;69.69;99320.25;5057910;28;20088;-76
2022/11/17 07:15:29;;;;;;;55.97;25.42;;;;;;;16.37;69.64;99312.94;5058514;28;20048;-77
2022/11/17 07:17:54;;;;;;;37.53;22.42;;;;;;;16.42;69.58;99310.50;5053633;28;20029;-76
2022/11/17 07:20:19;;;;;;;42.35;23.75;;;;;;;16.51;69.83;99309.34;5053487;28;20021;-76
2022/11/17 07:22:45;;;;;;;34.85;20.85;;;;;;;16.44;69.44;99301.13;5053355;28;20107;-77
2022/11/17 07:25:11;;;;;;;50.78;23.60;;;;;;;16.52;69.63;99308.28;5053709;28;20032;-76
2022/11/17 07:27:37;;;;;;;34.67;24.25;;;;;;;16.54;70.02;99301.69;5053095;28;20033;-77
2022/11/17 07:30:06;;;;;;;38.67;22.83;;;;;;;16.54;70.04;99292.66;5052256;28;20549;-77
2022/11/17 07:32:33;;;;;;;38.78;24.50;;;;;;;16.59;69.90;99288.34;5052310;28;20045;-77
2022/11/17 07:35:00;;;;;;;40.05;22.52;;;;;;;16.59;69.66;99290.22;5052675;28;20024;-76
2022/11/17 07:37:26;;;;;;;39.33;22.35;;;;;;;16.70;69.37;99289.69;5052454;28;20028;-77
2022/11/17 07:39:51;;;;;;;33.70;21.42;;;;;;;16.73;69.50;99290.13;5052267;28;20456;-76
2022/11/17 07:42:17;;;;;;;37.15;21.75;;;;;;;16.74;69.35;99282.84;5051975;28;20111;-76
2022/11/17 07:44:42;;;;;;;30.63;20.48;;;;;;;16.81;69.30;99283.72;5052065;28;20032;-76
2022/11/17 07:47:08;;;;;;;35.42;19.77;;;;;;;16.79;69.10;99266.78;5051730;28;20424;-76
2022/11/17 07:49:33;;;;;;;27.23;19.23;;;;;;;16.84;69.05;99286.06;5051598;28;20037;-75
2022/11/17 07:51:59;;;;;;;36.38;21.42;;;;;;;16.89;69.22;99278.13;5066278;28;20372;-77
2022/11/17 07:54:25;;;;;;;31.17;20.50;;;;;;;16.78;68.72;99246.13;5051852;28;20109;-75
2022/11/17 07:56:50;;;;;;;33.22;20.42;;;;;;;16.94;68.64;99256.66;5052290;28;20455;-76
2022/11/17 07:59:16;;;;;;;37.10;22.65;;;;;;;17.10;68.25;99266.38;5052276;28;20072;-75
2022/11/17 08:01:41;;;;;;;38.45;22.95;;;;;;;17.23;68.40;99259.16;5052036;28;20028;-76
2022/11/17 08:04:07;;;;;;;49.00;22.45;;;;;;;17.33;67.94;99253.34;5051704;28;20405;-76
2022/11/17 08:06:32;;;;;;;34.72;20.70;;;;;;;17.47;67.38;99251.50;5051389;28;20078;-77
2022/11/17 08:08:57;;;;;;;49.85;22.60;;;;;;;17.58;67.01;99245.53;5051799;28;20025;-77
2022/11/17 08:11:23;;;;;;;63.45;21.65;;;;;;;17.74;66.48;99247.88;5050848;28;20063;-77
2022/11/17 08:13:49;;;;;;;57.92;29.65;;;;;;;17.95;66.77;99250.44;5051932;28;20024;-76
2022/11/17 08:16:15;;;;;;;43.53;23.20;;;;;;;18.11;65.68;99250.06;5051111;28;20047;-76
2022/11/17 08:18:40;;;;;;;49.28;24.73;;;;;;;18.18;64.71;99244.66;5053529;28;20419;-76
2022/11/17 08:21:09;;;;;;;62.28;22.70;;;;;;;18.29;64.11;99242.16;5055088;28;20108;-76
2022/11/17 08:23:36;;;;;;;38.83;20.10;;;;;;;18.30;63.78;99232.94;5055527;28;20036;-76
2022/11/17 08:26:03;;;;;;;38.83;19.38;;;;;;;18.24;63.03;99214.72;5053752;28;20029;-75
2022/11/17 08:28:29;;;;;;;39.10;22.77;;;;;;;18.44;63.16;99234.63;5051104;28;20388;-76
2022/11/17 08:30:54;;;;;;;47.70;22.05;;;;;;;18.52;62.97;99244.50;5049764;28;20033;-76
2022/11/17 08:33:20;;;;;;;41.03;19.55;;;;;;;18.63;62.76;99232.13;5051345;28;20032;-77
2022/11/17 08:35:46;;;;;;;44.97;19.77;;;;;;;18.73;62.85;99227.09;5051763;28;20522;-78
2022/11/17 08:38:14;;;;;;;42.53;19.75;;;;;;;18.88;62.21;99241.34;5051321;28;20033;-77
2022/11/17 08:40:42;;;;;;;32.30;18.08;;;;;;;18.80;61.30;99206.16;5050989;28;20484;-76
2022/11/17 08:43:08;;;;;;;28.83;15.82;;;;;;;19.08;60.78;99244.84;5050041;28;20032;-76
2022/11/17 08:45:33;;;;;;;29.02;16.65;;;;;;;19.15;60.50;99237.50;5051040;28;20025;-76
2022/11/17 08:47:59;;;;;;;22.83;14.43;;;;;;;19.28;59.99;99248.38;5050921;28;20111;-76
2022/11/17 08:50:25;;;;;;;27.58;14.48;;;;;;;19.25;59.59;99246.06;5050538;28;20020;-76
2022/11/17 08:52:51;;;;;;;25.33;14.10;;;;;;;19.34;59.38;99242.06;5051144;28;20052;-77
2022/11/17 08:55:17;;;;;;;38.63;15.57;;;;;;;19.39;59.03;99234.09;5054602;28;20029;-78
2022/11/17 08:57:43;;;;;;;33.85;16.75;;;;;;;19.42;58.65;99239.13;5051871;28;20037;-77
2022/11/17 09:00:09;;;;;;;31.50;16.05;;;;;;;19.29;58.72;99211.91;5050659;28;20061;-76
2022/11/17 09:02:36;;;;;;;44.50;20.15;;;;;;;19.26;58.60;99206.03;5050430;28;20737;-77
2022/11/17 09:05:03;;;;;;;31.95;16.77;;;;;;;19.49;58.19;99234.50;5051546;28;20025;-77
2022/11/17 09:07:32;;;;;;;29.23;15.68;;;;;;;19.43;58.30;99224.44;5051311;28;20017;-77
2022/11/17 09:09:58;;;;;;;30.75;16.40;;;;;;;19.51;58.38;99226.91;5050634;28;20036;-77
2022/11/17 09:12:24;;;;;;;31.70;17.00;;;;;;;19.46;58.33;99218.56;5050199;28;20025;-76
2022/11/17 09:14:49;;;;;;;29.73;17.30;;;;;;;19.53;58.13;99216.66;5050494;28;20039;-77
2022/11/17 09:17:15;;;;;;;30.33;17.45;;;;;;;19.57;57.99;99214.31;5050426;28;20028;-78
2022/11/17 09:19:40;;;;;;;39.88;17.15;;;;;;;19.21;57.80;99141.25;5050923;28;20029;-77
2022/11/17 09:22:06;;;;;;;41.35;17.83;;;;;;;19.69;57.74;99211.75;5051133;28;20033;-77
2022/11/17 09:24:31;;;;;;;40.20;19.30;;;;;;;19.63;57.49;99185.34;5050601;28;20021;-76
2022/11/17 09:26:57;;;;;;;35.05;18.15;;;;;;;19.69;57.67;99190.78;5051115;28;20154;-77
2022/11/17 09:29:22;;;;;;;51.00;18.38;;;;;;;19.73;57.46;99192.00;5050599;28;20032;-77
2022/11/17 09:31:48;;;;;;;31.02;14.32;;;;;;;19.73;57.20;99174.78;5052975;28;20468;-77
2022/11/17 09:34:14;;;;;;;27.23;14.45;;;;;;;19.74;57.48;99187.38;5055084;28;20102;-77
2022/11/17 09:36:41;;;;;;;22.65;14.13;;;;;;;19.73;57.41;99196.59;5055823;28;20498;-76
2022/11/17 09:39:07;;;;;;;26.25;12.35;;;;;;;19.74;56.96;99179.19;5050290;28;20033;-76
2022/11/17 09:41:38;;;;;;;24.88;10.82;;;;;;;19.60;56.83;99153.06;5049122;28;20480;-76
2022/11/17 09:44:18;;;;;;;20.67;12.25;;;;;;;19.76;56.89;99185.25;5050450;28;20558;-77
2022/11/17 09:47:05;;;;;;;43.45;15.05;;;;;;;19.85;56.91;99186.66;5051081;28;20029;-76
2022/11/17 09:49:48;;;;;;;35.30;14.60;;;;;;;19.84;57.16;99204.13;5049924;28;20148;-75
2022/11/17 09:52:17;;;;;;;20.85;12.40;;;;;;;19.57;57.24;99173.41;5049867;28;20484;-76
2022/11/17 09:54:52;;;;;;;21.23;11.65;;;;;;;19.70;57.50;99213.41;5051456;28;20329;-77
2022/11/17 09:57:35;;;;;;;30.00;11.25;;;;;;;19.48;57.70;99191.91;5054365;28;20033;-77
2022/11/17 10:00:10;;;;;;;20.58;8.98;;;;;;;19.62;58.11;99225.41;5054040;28;20091;-76
2022/11/17 10:02:36;;;;;;;91.95;12.60;;;;;;;19.36;58.83;99196.31;5053937;28;20029;-76
2022/11/17 10:05:01;;;;;;;27.00;11.25;;;;;;;19.43;59.87;99224.44;5053861;28;20648;-77
2022/11/17 10:07:30;;;;;;;23.83;11.10;;;;;;;19.34;60.07;99216.69;5054228;28;20029;-78
2022/11/17 10:09:59;;;;;;;22.55;9.45;;;;;;;19.23;60.08;99215.47;5053499;28;20497;-77
2022/11/17 10:12:33;;;;;;;23.60;10.15;;;;;;;19.02;60.58;99188.47;5053669;28;20021;-76
2022/11/17 10:15:29;;;;;;;28.30;11.68;;;;;;;19.10;61.01;99209.22;5053919;28;20021;-77
2022/11/17 10:17:54;;;;;;;22.65;11.65;;;;;;;19.09;61.87;99213.81;5052902;28;20064;-77
2022/11/17 10:20:20;;;;;;;23.05;11.57;;;;;;;19.13;62.12;99217.81;5053773;28;20424;-77
2022/11/17 10:22:47;;;;;;;26.88;12.52;;;;;;;18.89;62.13;99178.47;5053720;28;20401;-77
2022/11/17 10:25:33;;;;;;;18.73;10.93;;;;;;;18.90;62.44;99201.09;5053644;28;20036;-77
2022/11/17 10:27:59;;;;;;;28.65;12.10;;;;;;;18.95;62.69;99221.22;5053161;28;20075;-76
2022/11/17 10:30:25;;;;;;;20.08;12.68;;;;;;;18.92;63.22;99224.38;5053618;28;20561;-76
2022/11/17 10:32:53;;;;;;;22.45;12.13;;;;;;;18.71;63.54;99200.09;5053175;28;20024;-76
2022/11/17 10:35:19;;;;;;;26.25;11.18;;;;;;;18.86;63.47;99235.28;5053378;28;20535;-76
2022/11/17 10:38:05;;;;;;;20.10;11.23;;;;;;;18.76;64.02;99232.97;5053231;28;20175;-77
2022/11/17 10:40:52;;;;;;;18.88;11.30;;;;;;;18.61;65.04;99242.41;5053427;28;20032;-78
2022/11/17 10:43:41;;;;;;;24.95;11.98;;;;;;;18.53;66.12;99245.34;5057805;28;20041;-76
2022/11/17 10:46:14;;;;;;;86.43;52.97;;;;;;;18.45;66.75;99249.06;5060026;28;20033;-78
2022/11/17 10:48:54;;;;;;;25.88;12.38;;;;;;;18.23;67.62;99237.53;5056009;28;20095;-76
2022/11/17 10:51:19;;;;;;;14.43;10.80;;;;;;;18.26;67.77;99248.00;5053308;28;20101;-77
2022/11/17 10:54:18;;;;;;;17.83;11.45;;;;;;;18.17;67.92;99249.25;5053299;28;20114;-76
2022/11/17 10:56:50;;;;;;;22.55;12.98;;;;;;;17.92;68.05;99205.47;5053010;28;20032;-76
2022/11/17 10:59:19;;;;;;;17.20;11.13;;;;;;;18.07;67.89;99242.56;5053226;28;20036;-77
2022/11/17 11:01:49;;;;;;;21.55;10.85;;;;;;;17.99;68.43;99254.44;5053086;28;20025;-76
2022/11/17 11:04:35;;;;;;;18.27;10.90;;;;;;;17.95;68.78;99245.00;5052535;28;20421;-76
2022/11/17 11:07:09;;;;;;;16.33;11.43;;;;;;;17.92;69.06;99229.09;5051510;28;20040;-76
2022/11/17 11:09:40;;;;;;;26.73;12.93;;;;;;;17.87;69.39;99228.88;5052896;28;20029;-76
2022/11/17 11:12:13;;;;;;;15.52;11.48;;;;;;;17.76;69.82;99224.06;5054634;28;20060;-76
2022/11/17 11:14:44;;;;;;;23.27;12.50;;;;;;;17.77;69.67;99212.13;5053004;28;20120;-77
2022/11/17 11:17:15;;;;;;;22.85;11.82;;;;;;;17.89;69.53;99224.06;5052557;28;20115;-77
2022/11/17 11:19:44;;;;;;;23.58;14.35;;;;;;;17.80;69.73;99220.72;5052467;28;20021;-76
2022/11/17 11:22:39;;;;;;;27.88;14.02;;;;;;;17.81;70.02;99216.13;5052080;28;20742;-77
2022/11/17 11:25:12;;;;;;;23.00;13.65;;;;;;;17.73;70.44;99209.00;5052445;28;20032;-76
2022/11/17 11:27:40;;;;;;;29.95;14.32;;;;;;;17.86;70.51;99219.03;5052285;28;20028;-76
2022/11/17 11:30:11;;;;;;;17.42;12.07;;;;;;;17.64;70.79;99187.63;5052242;28;20508;-77
2022/11/17 11:33:03;;;;;;;22.98;12.70;;;;;;;17.91;70.73;99222.84;5032876;28;20037;-76
2022/11/17 11:35:43;;;;;;;20.70;13.15;;;;;;;18.00;70.65;99228.09;5052197;28;20595;-77
2022/11/17 11:38:35;;;;;;;17.95;12.65;;;;;;;17.97;70.93;99226.63;5051883;28;20029;-76
2022/11/17 11:41:03;;;;;;;25.30;14.45;;;;;;;18.00;71.11;99226.22;5052571;28;20021;-76
2022/11/17 11:44:06;;;;;;;25.23;14.68;;;;;;;17.99;71.31;99213.63;5052346;28;20029;-77
2022/11/17 11:46:53;;;;;;;33.78;16.10;;;;;;;18.03;71.48;99214.91;5051728;28;20472;-77
2022/11/17 11:49:43;;;;;;;24.33;16.98;;;;;;;18.03;71.64;99209.47;5051843;28;20068;-75
2022/11/17 11:52:35;;;;;;;24.20;15.88;;;;;;;17.79;72.20;99163.81;5053645;28;20029;-77
2022/11/17 11:55:04;;;;;;;29.10;15.27;;;;;;;18.04;72.25;99194.81;5057215;28;20044;-77
2022/11/17 11:57:41;;;;;;;29.10;17.10;;;;;;;18.08;71.91;99196.06;5056206;28;20025;-77